Time;durP1;ratioP1;P1;durP2;ratioP2;P2;SDS_P1;SDS_P2;PMS_P1;PMS_P2;Temp;Humidity;BMP_temperature;BMP_pressure;BME280_temperature;BME280_humidity;BME280_pressure;Samples;Min_cycle;Max_cycle;Signal;HPM_P1;HPM_P2
2022/04/23 00:07:23;;;;;;;2.00;1.15;;;13.40;65.20;;;;;;20643654;28;20568;-70
2022/04/23 00:17:23;;;;;;;2.42;1.30;;;13.40;65.20;;;;;;20643500;28;20030;-70
2022/04/23 00:27:24;;;;;;;2.13;1.30;;;13.30;65.10;;;;;;20643049;28;20065;-70
2022/04/23 00:37:24;;;;;;;1.65;1.38;;;13.30;65.10;;;;;;20626462;28;20046;-70
2022/04/23 00:47:25;;;;;;;1.67;1.20;;;13.30;65.10;;;;;;20645585;28;20042;-71
2022/04/23 00:57:26;;;;;;;1.30;1.00;;;13.30;65.10;;;;;;20658254;28;20042;-70
2022/04/23 01:07:26;;;;;;;1.52;1.20;;;13.30;65.10;;;;;;20657528;28;20041;-70
2022/04/23 01:17:27;;;;;;;1.40;0.93;;;13.30;65.10;;;;;;20657937;28;20109;-70
2022/04/23 01:27:30;;;;;;;2.47;1.17;;;13.30;65.00;;;;;;20655722;28;20038;-70
2022/04/23 01:37:31;;;;;;;1.60;1.48;;;13.30;65.00;;;;;;20639714;28;20285;-71
2022/04/23 01:47:31;;;;;;;1.83;1.45;;;13.30;65.00;;;;;;20654666;28;20038;-70
2022/04/23 01:57:32;;;;;;;1.90;1.15;;;13.30;65.00;;;;;;20652494;28;20081;-70
2022/04/23 02:07:39;;;;;;;1.65;1.23;;;13.30;65.00;;;;;;20637408;28;20529;-70
2022/04/23 02:17:41;;;;;;;2.28;1.35;;;13.20;65.00;;;;;;20636129;28;20477;-71
2022/04/23 02:27:46;;;;;;;1.83;1.25;;;13.20;65.00;;;;;;20651524;28;20039;-71
2022/04/23 02:37:47;;;;;;;2.00;1.33;;;13.20;65.00;;;;;;21011445;23;20109;-73
2022/04/23 02:47:57;;;;;;;2.20;1.35;;;13.20;65.00;;;;;;20650133;28;20500;-73
2022/04/23 02:58:09;;;;;;;1.95;1.50;;;13.20;65.00;;;;;;20650151;28;20057;-74
2022/04/23 03:08:11;;;;;;;3.13;1.40;;;13.20;65.00;;;;;;20654105;28;20066;-73
2022/04/23 03:18:13;;;;;;;1.52;1.27;;;13.20;65.00;;;;;;20648219;28;20066;-73
2022/04/23 03:28:14;;;;;;;1.80;1.08;;;13.10;65.00;;;;;;20599378;28;20481;-73
2022/04/23 03:38:16;;;;;;;2.33;1.27;;;13.10;64.90;;;;;;20630008;28;20640;-73
2022/04/23 03:48:17;;;;;;;1.90;1.08;;;13.10;64.90;;;;;;20662832;28;20046;-73
2022/04/23 03:58:18;;;;;;;2.38;1.13;;;13.10;65.00;;;;;;20645295;28;20121;-73
2022/04/23 04:08:19;;;;;;;2.67;1.45;;;13.10;65.00;;;;;;20611980;28;20101;-73
2022/04/23 04:18:20;;;;;;;2.05;1.23;;;13.20;65.00;;;;;;20611792;28;20046;-73
2022/04/23 04:28:20;;;;;;;2.70;1.58;;;13.10;64.90;;;;;;20625888;28;20079;-73
2022/04/23 04:38:21;;;;;;;1.77;1.15;;;13.10;64.90;;;;;;20619432;28;20042;-73
2022/04/23 04:48:22;;;;;;;2.15;1.60;;;13.00;64.80;;;;;;20638744;28;20042;-73
2022/04/23 04:58:22;;;;;;;2.00;1.30;;;13.10;64.80;;;;;;20624672;28;20204;-73
2022/04/23 05:08:23;;;;;;;2.38;1.55;;;13.00;64.80;;;;;;20607009;28;20054;-73
2022/04/23 05:18:23;;;;;;;1.15;0.98;;;13.00;65.50;;;;;;20637469;28;20184;-73
2022/04/23 05:28:24;;;;;;;2.65;1.10;;;13.00;64.80;;;;;;20638466;28;20038;-73
2022/04/23 05:38:25;;;;;;;2.00;1.30;;;13.00;64.80;;;;;;20649245;28;20686;-73
2022/04/23 05:48:25;;;;;;;2.33;1.50;;;13.10;64.80;;;;;;20653595;28;20049;-74
2022/04/23 05:58:26;;;;;;;1.52;1.20;;;13.00;64.80;;;;;;20655272;28;20388;-72
2022/04/23 06:08:26;;;;;;;2.08;1.40;;;13.10;64.80;;;;;;20670488;28;20152;-70
2022/04/23 06:18:27;;;;;;;2.65;1.77;;;13.00;64.80;;;;;;20668228;28;20468;-73
2022/04/23 06:28:28;;;;;;;3.73;2.20;;;13.00;64.60;;;;;;20604428;28;20041;-72
2022/04/23 06:38:28;;;;;;;2.15;1.50;;;13.10;64.60;;;;;;20650565;28;20300;-70
2022/04/23 06:48:29;;;;;;;3.15;1.92;;;13.00;64.60;;;;;;20633182;28;20133;-76
2022/04/23 06:58:30;;;;;;;5.07;1.90;;;13.10;64.60;;;;;;20601548;28;20121;-75
2022/04/23 07:08:30;;;;;;;2.75;1.88;;;13.10;64.60;;;;;;20633730;28;20037;-73
2022/04/23 07:18:35;;;;;;;2.55;1.70;;;13.10;64.50;;;;;;20669312;28;20030;-78
2022/04/23 07:28:37;;;;;;;2.25;1.80;;;13.10;64.50;;;;;;20621178;28;20034;-76
2022/04/23 07:38:37;;;;;;;2.47;1.55;;;13.20;64.50;;;;;;20634595;28;20046;-78
2022/04/23 07:48:38;;;;;;;4.85;2.30;;;13.20;64.50;;;;;;20611283;28;20061;-77
2022/04/23 07:58:39;;;;;;;11.80;2.90;;;13.20;64.40;;;;;;20627071;28;20030;-79
2022/04/23 08:08:40;;;;;;;8.70;1.98;;;13.20;64.10;;;;;;20622355;28;20401;-77
2022/04/23 08:18:41;;;;;;;3.50;2.53;;;13.30;63.90;;;;;;20625238;28;20034;-76
2022/04/23 08:39:01;;;;;;;4.03;2.17;;;13.40;63.80;;;;;;20612944;28;20388;-76
2022/04/23 08:49:13;;;;;;;4.13;1.85;;;13.40;63.70;;;;;;20639764;28;20044;-76
2022/04/23 08:59:15;;;;;;;3.92;2.03;;;13.40;63.70;;;;;;20623639;28;20117;-75
2022/04/23 09:09:20;;;;;;;4.45;1.90;;;13.40;63.60;;;;;;20596653;28;20092;-77
2022/04/23 09:29:40;;;;;;;2.13;1.63;;;13.50;63.50;;;;;;20647190;28;20118;-75
2022/04/23 09:39:40;;;;;;;2.47;1.65;;;13.50;63.40;;;;;;20637290;28;20045;-74
2022/04/23 09:49:47;;;;;;;2.28;1.80;;;13.50;63.40;;;;;;20637093;28;20034;-74
2022/04/23 09:59:51;;;;;;;2.55;1.50;;;13.50;63.30;;;;;;20648834;28;20064;-74
2022/04/23 10:09:51;;;;;;;2.72;1.60;;;13.60;63.30;;;;;;20714210;28;20472;-75
2022/04/23 10:19:52;;;;;;;5.97;1.60;;;13.60;63.30;;;;;;20697336;28;20041;-75
2022/04/23 10:29:56;;;;;;;2.90;1.70;;;13.60;63.10;;;;;;20696361;28;20042;-75
2022/04/23 10:39:57;;;;;;;3.20;1.42;;;13.60;62.90;;;;;;20699657;28;20476;-75
2022/04/23 10:50:18;;;;;;;4.95;1.45;;;13.60;62.90;;;;;;20729161;28;20056;-76
2022/04/23 11:00:20;;;;;;;4.95;1.88;;;13.60;63.10;;;;;;20729654;28;20048;-73
2022/04/23 11:20:47;;;;;;;2.33;1.17;;;13.70;63.30;;;;;;20675771;28;20030;-76
2022/04/23 11:30:47;;;;;;;2.10;1.65;;;13.70;63.30;;;;;;20644401;28;20042;-75
2022/04/23 11:40:48;;;;;;;2.17;1.47;;;13.70;63.20;;;;;;20626763;28;20088;-76
2022/04/23 11:50:48;;;;;;;1.33;1.20;;;13.70;63.20;;;;;;20628128;28;20357;-76
2022/04/23 12:00:49;;;;;;;1.40;1.10;;;13.70;63.10;;;;;;20626284;28;20920;-76
2022/04/23 12:10:50;;;;;;;6.45;2.60;;;13.80;63.10;;;;;;20639328;28;20061;-74
2022/04/23 12:20:50;;;;;;;2.22;1.30;;;13.80;62.30;;;;;;20609210;28;20042;-74
2022/04/23 12:41:15;;;;;;;2.78;1.63;;;13.90;61.50;;;;;;20642615;28;20031;-74
2022/04/23 12:51:15;;;;;;;8.20;2.75;;;13.90;61.50;;;;;;20623671;28;20066;-75
2022/04/23 13:01:17;;;;;;;4.30;1.90;;;13.90;60.10;;;;;;20623944;28;20037;-74
2022/04/23 13:11:27;;;;;;;4.65;1.85;;;13.90;59.60;;;;;;20607462;28;20074;-73
2022/04/23 13:21:32;;;;;;;5.68;1.85;;;13.90;60.40;;;;;;20610160;28;20027;-73
2022/04/23 13:31:35;;;;;;;2.65;1.40;;;14.00;59.80;;;;;;20607052;28;20056;-74
2022/04/23 13:41:36;;;;;;;3.60;1.67;;;14.00;59.90;;;;;;20638675;28;20034;-75
2022/04/23 13:51:38;;;;;;;2.92;1.40;;;14.10;60.00;;;;;;20605819;28;20045;-74
2022/04/23 14:01:38;;;;;;;4.38;1.80;;;14.10;60.10;;;;;;20618687;28;20112;-74
2022/04/23 14:11:39;;;;;;;2.45;1.77;;;14.30;59.80;;;;;;20619091;28;20133;-77
2022/04/23 14:21:39;;;;;;;2.97;1.77;;;14.30;59.70;;;;;;20602253;28;20533;-76
2022/04/23 14:31:40;;;;;;;9.10;1.98;;;14.40;59.70;;;;;;20633122;28;20488;-75
2022/04/23 14:41:41;;;;;;;5.10;2.65;;;14.50;59.70;;;;;;20648466;28;20141;-74
2022/04/23 15:02:00;;;;;;;6.63;2.67;;;14.70;57.30;;;;;;20633303;28;20097;-76
2022/04/23 15:12:01;;;;;;;4.50;2.72;;;14.80;57.10;;;;;;20631503;28;20125;-76
2022/04/23 15:22:04;;;;;;;3.13;2.05;;;14.80;57.30;;;;;;20696182;28;20037;-76
2022/04/23 15:32:05;;;;;;;4.57;3.05;;;14.90;57.60;;;;;;20728602;28;20041;-75
2022/04/23 15:42:06;;;;;;;4.15;2.40;;;14.90;57.10;;;;;;20696209;28;20042;-75
2022/04/23 15:52:08;;;;;;;3.72;2.20;;;15.00;57.00;;;;;;20653893;28;20038;-75
2022/04/23 16:02:09;;;;;;;2.75;2.20;;;15.10;56.60;;;;;;20611413;28;20034;-74
2022/04/23 16:12:10;;;;;;;3.22;2.20;;;15.10;56.60;;;;;;20642022;28;20092;-73
2022/04/23 16:22:11;;;;;;;6.53;2.25;;;15.10;56.30;;;;;;20627615;28;20031;-75
2022/04/23 16:32:11;;;;;;;3.40;1.95;;;15.20;56.80;;;;;;20578645;28;20162;-78
2022/04/23 16:52:31;;;;;;;6.32;2.83;;;15.20;57.10;;;;;;20676552;28;20038;-75
2022/04/23 17:02:32;;;;;;;2.83;1.65;;;15.20;57.40;;;;;;20641505;28;20041;-76
2022/04/23 17:12:33;;;;;;;3.13;1.80;;;15.20;57.70;;;;;;20619113;28;20046;-75
2022/04/23 17:22:33;;;;;;;6.60;2.22;;;15.10;57.90;;;;;;20676829;28;20077;-73
2022/04/23 17:32:34;;;;;;;2.03;1.40;;;15.10;58.90;;;;;;20727906;28;20068;-73
2022/04/23 17:42:35;;;;;;;2.95;1.60;;;15.00;58.50;;;;;;20626540;28;20125;-72
2022/04/23 17:52:36;;;;;;;3.15;1.67;;;15.00;58.80;;;;;;20706142;28;20042;-73
2022/04/23 18:12:58;;;;;;;3.38;1.88;;;14.90;59.00;;;;;;20736158;28;20355;-73
2022/04/23 18:22:59;;;;;;;3.13;1.60;;;14.80;59.20;;;;;;20719503;28;20484;-73
2022/04/23 18:32:59;;;;;;;2.85;1.85;;;14.80;59.30;;;;;;20716122;28;20050;-73
2022/04/23 18:43:00;;;;;;;2.17;1.52;;;14.70;59.50;;;;;;20697734;28;20090;-74
2022/04/23 18:53:00;;;;;;;2.55;1.88;;;14.70;59.60;;;;;;20715378;28;20038;-74
2022/04/23 19:03:01;;;;;;;2.17;1.60;;;14.70;59.80;;;;;;20746754;28;20060;-73
2022/04/23 19:13:02;;;;;;;1.88;1.48;;;14.70;59.90;;;;;;20729199;28;20042;-73
2022/04/23 19:33:22;;;;;;;2.15;1.25;;;14.60;60.00;;;;;;20711508;28;20042;-79
2022/04/23 19:43:24;;;;;;;3.83;1.65;;;14.60;60.10;;;;;;20716024;28;20420;-79
2022/04/23 19:53:24;;;;;;;2.92;1.63;;;14.60;60.30;;;;;;20715392;28;20037;-77
2022/04/23 20:03:25;;;;;;;2.80;1.88;;;14.50;60.40;;;;;;20706635;28;20126;-80
2022/04/23 20:13:26;;;;;;;2.95;1.20;;;14.50;60.40;;;;;;20633237;28;20036;-77
2022/04/23 20:23:27;;;;;;;2.85;1.42;;;14.50;60.50;;;;;;20631377;28;20117;-76
2022/04/23 20:33:27;;;;;;;9.15;1.70;;;14.50;60.60;;;;;;20646054;28;20054;-76
2022/04/23 20:43:28;;;;;;;2.33;1.60;;;14.40;60.50;;;;;;20646486;28;20378;-77
2022/04/23 20:53:28;;;;;;;3.83;1.52;;;14.40;60.60;;;;;;20625535;28;20374;-77
2022/04/23 21:03:39;;;;;;;1.10;0.98;;;14.40;60.60;;;;;;20646992;28;20392;-76
2022/04/23 21:13:40;;;;;;;2.78;1.13;;;14.40;60.60;;;;;;20663624;28;20038;-75
2022/04/23 21:23:42;;;;;;;1.70;1.20;;;14.40;60.60;;;;;;20660925;28;20208;-75
2022/04/23 21:33:43;;;;;;;4.55;1.30;;;14.40;60.60;;;;;;20645098;28;20104;-80
2022/04/23 21:54:03;;;;;;;3.00;1.45;;;14.30;60.70;;;;;;20646149;28;20030;-77
2022/04/23 22:04:03;;;;;;;1.92;1.38;;;14.30;60.60;;;;;;20642986;28;20045;-77
2022/04/23 22:14:04;;;;;;;1.90;1.40;;;14.30;60.70;;;;;;20609973;28;20487;-75
2022/04/23 22:24:05;;;;;;;2.33;1.10;;;14.30;60.70;;;;;;20656215;28;20046;-79
2022/04/23 22:34:06;;;;;;;1.67;1.02;;;14.30;60.70;;;;;;20640288;28;20375;-76
2022/04/23 22:44:07;;;;;;;1.90;1.40;;;14.30;60.80;;;;;;20639805;28;20065;-76
2022/04/23 22:54:07;;;;;;;1.23;0.90;;;14.30;60.80;;;;;;20622628;28;20038;-79
2022/04/23 23:04:08;;;;;;;1.25;1.00;;;14.20;60.80;;;;;;20654986;28;20038;-78
2022/04/23 23:14:08;;;;;;;1.85;1.23;;;14.20;60.80;;;;;;20652504;28;20148;-76
2022/04/23 23:24:09;;;;;;;1.42;0.70;;;14.20;60.80;;;;;;20636381;28;20049;-76
2022/04/23 23:34:10;;;;;;;1.58;1.00;;;14.20;60.80;;;;;;20666325;28;20038;-76
2022/04/23 23:44:11;;;;;;;1.10;1.00;;;14.20;60.80;;;;;;20636505;28;20042;-77
2022/04/23 23:54:11;;;;;;;1.15;0.88;;;14.20;60.90;;;;;;20636396;28;20370;-77
